In Rescue
 
Open Full Screen Window  High Contrast Mode
Wind Gusting 00 knots
04
May 25, 2022 9:23 PM CDT
Weather Information
Wind Direction
  040 °
Wind Speed
  04 kt (5 mph)
Wind Gust
  00 kt (0 mph)
Altimeter
30.02 in
Visibility
10 SM
Temperature
09° C
48° F
Dewpoint
08° C
46° F
Humidity
94%
1hr Rain Fall
00.00 in.
24hr Rain Fall
00.00 in.
Sky Condition
Overcast @ 5,000 ft
Broken @ 4,500 ft
Scattered @ 3,300 ft
VFR

METAR KFOZ 260223Z AUTO 04004KT 10SM SCT033 BKN045 OVC050 09/08 A3002 RMK AO2

FAA Disclaimer: The data displayed is for advisory purposes only and is not to be used for flight planning or operations.